sensor_id;sensor_type;location;lat;lon;timestamp;pressure;altitude;pressure_sealevel;temperature;humidity
36932;BME280;22847;42.654;23.370;2022-11-20T00:01:17;93992.09;;;14.62;82.31
36932;BME280;22847;42.654;23.370;2022-11-20T00:03:43;94042.91;;;14.97;81.50
36932;BME280;22847;42.654;23.370;2022-11-20T00:06:11;94033.63;;;14.95;80.74
36932;BME280;22847;42.654;23.370;2022-11-20T00:08:37;93996.66;;;14.75;81.07
36932;BME280;22847;42.654;23.370;2022-11-20T00:11:08;93928.91;;;14.43;81.05
36932;BME280;22847;42.654;23.370;2022-11-20T00:13:34;93751.47;;;13.50;80.67
36932;BME280;22847;42.654;23.370;2022-11-20T00:16:01;93969.47;;;14.83;81.02
36932;BME280;22847;42.654;23.370;2022-11-20T00:18:27;94019.84;;;14.93;79.95
36932;BME280;22847;42.654;23.370;2022-11-20T00:20:53;94014.72;;;15.48;78.11
36932;BME280;22847;42.654;23.370;2022-11-20T00:23:25;93953.47;;;15.20;78.24
36932;BME280;22847;42.654;23.370;2022-11-20T00:25:50;93979.75;;;15.48;76.99
36932;BME280;22847;42.654;23.370;2022-11-20T00:28:15;94014.50;;;15.50;76.35
36932;BME280;22847;42.654;23.370;2022-11-20T00:30:41;93898.72;;;15.24;75.49
36932;BME280;22847;42.654;23.370;2022-11-20T00:33:06;93978.06;;;15.61;74.29
36932;BME280;22847;42.654;23.370;2022-11-20T00:35:31;93984.13;;;15.62;74.10
36932;BME280;22847;42.654;23.370;2022-11-20T00:37:57;93956.56;;;15.58;73.83
36932;BME280;22847;42.654;23.370;2022-11-20T00:40:22;93964.09;;;15.61;73.92
36932;BME280;22847;42.654;23.370;2022-11-20T00:42:48;93768.03;;;14.57;72.87
36932;BME280;22847;42.654;23.370;2022-11-20T00:45:13;93975.81;;;15.93;70.93
36932;BME280;22847;42.654;23.370;2022-11-20T00:47:38;94005.81;;;16.05;70.16
36932;BME280;22847;42.654;23.370;2022-11-20T00:50:04;93979.50;;;15.98;70.17
36932;BME280;22847;42.654;23.370;2022-11-20T00:52:30;94004.00;;;16.53;69.05
36932;BME280;22847;42.654;23.370;2022-11-20T00:54:55;94009.97;;;16.27;69.00
36932;BME280;22847;42.654;23.370;2022-11-20T00:57:20;94014.25;;;16.28;68.89
36932;BME280;22847;42.654;23.370;2022-11-20T00:59:46;93841.25;;;15.35;67.82
36932;BME280;22847;42.654;23.370;2022-11-20T01:02:11;93793.56;;;15.45;66.23
36932;BME280;22847;42.654;23.370;2022-11-20T01:04:37;93955.63;;;16.47;64.79
36932;BME280;22847;42.654;23.370;2022-11-20T01:07:02;93997.84;;;16.74;65.02
36932;BME280;22847;42.654;23.370;2022-11-20T01:09:27;93970.75;;;16.86;64.73
36932;BME280;22847;42.654;23.370;2022-11-20T01:11:53;93754.59;;;15.48;64.50
36932;BME280;22847;42.654;23.370;2022-11-20T01:14:19;93968.47;;;16.77;63.92
36932;BME280;22847;42.654;23.370;2022-11-20T01:16:49;93957.81;;;17.05;62.53
36932;BME280;22847;42.654;23.370;2022-11-20T01:19:20;93764.09;;;16.10;59.54
36932;BME280;22847;42.654;23.370;2022-11-20T01:21:49;93965.72;;;17.37;60.29
36932;BME280;22847;42.654;23.370;2022-11-20T01:24:16;93982.34;;;17.38;60.79
36932;BME280;22847;42.654;23.370;2022-11-20T01:26:43;93791.22;;;16.24;61.95
36932;BME280;22847;42.654;23.370;2022-11-20T01:29:14;93973.81;;;17.10;62.27
36932;BME280;22847;42.654;23.370;2022-11-20T01:31:41;93793.88;;;16.37;61.25
36932;BME280;22847;42.654;23.370;2022-11-20T01:34:10;93936.75;;;17.37;61.12
36932;BME280;22847;42.654;23.370;2022-11-20T01:36:37;93949.09;;;17.17;62.34
36932;BME280;22847;42.654;23.370;2022-11-20T01:39:24;93917.03;;;16.81;64.00
36932;BME280;22847;42.654;23.370;2022-11-20T01:41:51;93857.63;;;16.45;63.50
36932;BME280;22847;42.654;23.370;2022-11-20T01:44:48;93759.38;;;15.79;64.04
36932;BME280;22847;42.654;23.370;2022-11-20T01:47:17;93896.06;;;16.40;65.09
36932;BME280;22847;42.654;23.370;2022-11-20T01:49:52;93903.06;;;16.13;66.45
36932;BME280;22847;42.654;23.370;2022-11-20T01:54:56;93929.59;;;16.18;67.27
36932;BME280;22847;42.654;23.370;2022-11-20T01:57:25;93929.38;;;16.13;68.30
36932;BME280;22847;42.654;23.370;2022-11-20T01:59:57;93779.38;;;15.26;68.17
36932;BME280;22847;42.654;23.370;2022-11-20T02:02:25;93898.88;;;16.25;66.32
36932;BME280;22847;42.654;23.370;2022-11-20T02:04:51;93882.28;;;16.31;65.70
36932;BME280;22847;42.654;23.370;2022-11-20T02:07:20;93831.53;;;15.77;66.08
36932;BME280;22847;42.654;23.370;2022-11-20T02:09:46;93918.97;;;16.52;66.15
36932;BME280;22847;42.654;23.370;2022-11-20T02:12:11;93946.97;;;16.67;65.79
36932;BME280;22847;42.654;23.370;2022-11-20T02:14:57;93920.59;;;16.53;65.54
36932;BME280;22847;42.654;23.370;2022-11-20T02:17:23;93935.47;;;16.68;65.60
36932;BME280;22847;42.654;23.370;2022-11-20T02:19:49;93893.44;;;16.33;64.06
36932;BME280;22847;42.654;23.370;2022-11-20T02:22:23;93963.03;;;16.85;64.72
36932;BME280;22847;42.654;23.370;2022-11-20T02:24:51;93931.19;;;16.60;65.09
36932;BME280;22847;42.654;23.370;2022-11-20T02:27:16;93872.81;;;16.37;64.68
36932;BME280;22847;42.654;23.370;2022-11-20T02:30:02;93887.44;;;16.59;63.46
36932;BME280;22847;42.654;23.370;2022-11-20T02:32:31;93772.41;;;16.07;60.92
36932;BME280;22847;42.654;23.370;2022-11-20T02:34:57;93811.50;;;16.49;59.14
36932;BME280;22847;42.654;23.370;2022-11-20T02:37:23;93727.06;;;15.92;60.10
36932;BME280;22847;42.654;23.370;2022-11-20T02:39:52;93918.28;;;17.44;59.08
36932;BME280;22847;42.654;23.370;2022-11-20T02:42:18;93943.00;;;17.50;58.64
36932;BME280;22847;42.654;23.370;2022-11-20T02:44:44;93914.03;;;17.36;57.89
36932;BME280;22847;42.654;23.370;2022-11-20T02:47:09;93958.81;;;17.76;57.13
36932;BME280;22847;42.654;23.370;2022-11-20T02:49:35;93921.13;;;17.56;56.97
36932;BME280;22847;42.654;23.370;2022-11-20T02:52:00;93773.84;;;17.02;55.69
36932;BME280;22847;42.654;23.370;2022-11-20T02:54:26;93949.81;;;18.10;55.32
36932;BME280;22847;42.654;23.370;2022-11-20T02:56:52;93964.19;;;18.20;55.33
36932;BME280;22847;42.654;23.370;2022-11-20T02:59:17;93904.50;;;18.19;55.10
36932;BME280;22847;42.654;23.370;2022-11-20T03:01:42;93947.66;;;18.45;55.14
36932;BME280;22847;42.654;23.370;2022-11-20T03:04:08;93886.66;;;18.15;54.75
36932;BME280;22847;42.654;23.370;2022-11-20T03:06:33;93813.09;;;17.29;55.10
36932;BME280;22847;42.654;23.370;2022-11-20T03:08:59;93993.72;;;18.62;54.97
36932;BME280;22847;42.654;23.370;2022-11-20T03:11:24;93965.53;;;18.43;55.67
36932;BME280;22847;42.654;23.370;2022-11-20T03:13:50;93985.78;;;18.68;54.72
36932;BME280;22847;42.654;23.370;2022-11-20T03:16:18;94018.66;;;18.73;55.01
36932;BME280;22847;42.654;23.370;2022-11-20T03:18:44;93969.03;;;18.81;55.92
36932;BME280;22847;42.654;23.370;2022-11-20T03:21:10;94011.25;;;18.88;54.47
36932;BME280;22847;42.654;23.370;2022-11-20T03:23:37;94003.97;;;18.83;54.10
36932;BME280;22847;42.654;23.370;2022-11-20T03:26:35;93996.03;;;18.83;54.79
36932;BME280;22847;42.654;23.370;2022-11-20T03:29:03;93999.75;;;18.69;55.00
36932;BME280;22847;42.654;23.370;2022-11-20T03:31:32;93990.44;;;18.66;55.02
36932;BME280;22847;42.654;23.370;2022-11-20T03:33:58;93977.81;;;18.75;54.12
36932;BME280;22847;42.654;23.370;2022-11-20T03:36:24;94003.63;;;18.73;54.19
36932;BME280;22847;42.654;23.370;2022-11-20T03:38:50;93972.56;;;18.68;54.21
36932;BME280;22847;42.654;23.370;2022-11-20T03:41:20;93995.63;;;18.86;54.20
36932;BME280;22847;42.654;23.370;2022-11-20T03:43:49;93807.94;;;17.74;54.32
36932;BME280;22847;42.654;23.370;2022-11-20T03:46:15;93978.97;;;18.86;53.88
36932;BME280;22847;42.654;23.370;2022-11-20T03:48:41;93795.38;;;17.69;53.72
36932;BME280;22847;42.654;23.370;2022-11-20T03:51:11;93995.47;;;18.75;53.80
36932;BME280;22847;42.654;23.370;2022-11-20T03:53:38;93666.78;;;16.69;54.06
36932;BME280;22847;42.654;23.370;2022-11-20T03:56:04;93832.06;;;17.77;53.97
36932;BME280;22847;42.654;23.370;2022-11-20T03:58:30;93805.72;;;17.64;53.81
36932;BME280;22847;42.654;23.370;2022-11-20T04:00:55;93859.81;;;17.87;53.89
36932;BME280;22847;42.654;23.370;2022-11-20T04:03:21;93985.38;;;18.52;53.80
36932;BME280;22847;42.654;23.370;2022-11-20T04:05:46;93970.56;;;18.64;53.87
36932;BME280;22847;42.654;23.370;2022-11-20T04:08:12;93818.47;;;17.74;53.33
36932;BME280;22847;42.654;23.370;2022-11-20T04:10:37;93996.28;;;18.82;53.64
36932;BME280;22847;42.654;23.370;2022-11-20T04:13:03;93962.84;;;18.56;53.93
36932;BME280;22847;42.654;23.370;2022-11-20T04:15:28;94004.22;;;18.75;53.77
36932;BME280;22847;42.654;23.370;2022-11-20T04:17:54;94027.16;;;18.81;53.42
36932;BME280;22847;42.654;23.370;2022-11-20T04:20:19;94016.59;;;18.81;53.55
36932;BME280;22847;42.654;23.370;2022-11-20T04:22:45;94038.69;;;18.87;53.11
36932;BME280;22847;42.654;23.370;2022-11-20T04:25:10;93906.69;;;18.29;52.97
36932;BME280;22847;42.654;23.370;2022-11-20T04:27:35;94009.69;;;18.80;53.84
36932;BME280;22847;42.654;23.370;2022-11-20T04:30:01;94027.41;;;18.73;53.97
36932;BME280;22847;42.654;23.370;2022-11-20T04:32:26;94003.78;;;18.78;54.03
36932;BME280;22847;42.654;23.370;2022-11-20T04:34:52;94028.78;;;18.76;53.95
36932;BME280;22847;42.654;23.370;2022-11-20T04:37:17;94024.16;;;18.71;54.62
36932;BME280;22847;42.654;23.370;2022-11-20T04:39:43;94012.19;;;18.68;55.28
36932;BME280;22847;42.654;23.370;2022-11-20T04:42:09;93998.00;;;18.56;55.04
36932;BME280;22847;42.654;23.370;2022-11-20T04:44:53;93834.78;;;17.25;55.74
36932;BME280;22847;42.654;23.370;2022-11-20T04:47:19;93829.50;;;17.38;55.47
36932;BME280;22847;42.654;23.370;2022-11-20T04:49:45;93802.34;;;17.31;55.60
36932;BME280;22847;42.654;23.370;2022-11-20T04:52:10;93804.22;;;17.04;56.36
36932;BME280;22847;42.654;23.370;2022-11-20T04:54:35;94025.66;;;18.34;56.78
36932;BME280;22847;42.654;23.370;2022-11-20T04:57:01;94035.63;;;18.25;57.00
36932;BME280;22847;42.654;23.370;2022-11-20T04:59:26;93961.88;;;18.37;55.98
36932;BME280;22847;42.654;23.370;2022-11-20T05:01:51;93866.75;;;17.61;56.07
36932;BME280;22847;42.654;23.370;2022-11-20T05:04:17;93985.88;;;18.36;56.42
36932;BME280;22847;42.654;23.370;2022-11-20T05:06:42;93974.09;;;18.32;56.90
36932;BME280;22847;42.654;23.370;2022-11-20T05:09:08;94002.13;;;18.26;56.89
36932;BME280;22847;42.654;23.370;2022-11-20T05:11:33;93975.00;;;17.99;56.84
36932;BME280;22847;42.654;23.370;2022-11-20T05:13:59;94009.38;;;18.50;56.55
36932;BME280;22847;42.654;23.370;2022-11-20T05:16:25;93982.84;;;18.25;57.82
36932;BME280;22847;42.654;23.370;2022-11-20T05:18:52;93952.59;;;18.28;57.64
36932;BME280;22847;42.654;23.370;2022-11-20T05:21:17;93994.03;;;18.27;58.47
36932;BME280;22847;42.654;23.370;2022-11-20T05:23:44;93980.13;;;17.55;61.86
36932;BME280;22847;42.654;23.370;2022-11-20T05:26:15;93778.44;;;16.07;64.35
36932;BME280;22847;42.654;23.370;2022-11-20T05:28:41;93947.06;;;17.32;64.78
36932;BME280;22847;42.654;23.370;2022-11-20T05:31:08;93928.22;;;17.22;65.86
36932;BME280;22847;42.654;23.370;2022-11-20T05:33:35;93914.00;;;16.71;68.23
36932;BME280;22847;42.654;23.370;2022-11-20T05:36:02;93962.03;;;16.99;68.85
36932;BME280;22847;42.654;23.370;2022-11-20T05:38:28;93969.50;;;16.89;69.23
36932;BME280;22847;42.654;23.370;2022-11-20T05:40:53;93775.78;;;15.88;68.65
36932;BME280;22847;42.654;23.370;2022-11-20T05:43:19;93965.69;;;17.05;68.77
36932;BME280;22847;42.654;23.370;2022-11-20T05:45:52;93952.72;;;17.03;68.81
36932;BME280;22847;42.654;23.370;2022-11-20T05:48:18;93961.84;;;17.01;69.17
36932;BME280;22847;42.654;23.370;2022-11-20T05:50:43;93947.88;;;17.00;68.83
36932;BME280;22847;42.654;23.370;2022-11-20T05:53:09;93939.34;;;17.11;68.54
36932;BME280;22847;42.654;23.370;2022-11-20T05:55:34;93949.28;;;17.09;68.80
36932;BME280;22847;42.654;23.370;2022-11-20T05:57:59;93792.06;;;15.63;70.10
36932;BME280;22847;42.654;23.370;2022-11-20T06:00:25;93924.50;;;16.58;69.11
36932;BME280;22847;42.654;23.370;2022-11-20T06:02:50;93938.22;;;16.53;69.29
36932;BME280;22847;42.654;23.370;2022-11-20T06:05:15;93943.00;;;16.84;69.18
36932;BME280;22847;42.654;23.370;2022-11-20T06:07:41;93906.44;;;16.55;68.42
36932;BME280;22847;42.654;23.370;2022-11-20T06:10:06;93977.47;;;17.15;68.04
36932;BME280;22847;42.654;23.370;2022-11-20T06:12:32;93967.94;;;17.34;66.98
36932;BME280;22847;42.654;23.370;2022-11-20T06:14:58;93973.19;;;17.21;67.49
36932;BME280;22847;42.654;23.370;2022-11-20T06:17:24;93946.41;;;16.78;68.66
36932;BME280;22847;42.654;23.370;2022-11-20T06:19:49;93952.28;;;16.80;67.85
36932;BME280;22847;42.654;23.370;2022-11-20T06:22:14;93979.91;;;17.30;67.44
36932;BME280;22847;42.654;23.370;2022-11-20T06:24:40;93961.84;;;16.87;68.21
36932;BME280;22847;42.654;23.370;2022-11-20T06:27:05;93837.69;;;16.03;67.46
36932;BME280;22847;42.654;23.370;2022-11-20T06:29:30;93991.66;;;17.21;66.37
36932;BME280;22847;42.654;23.370;2022-11-20T06:31:56;93919.47;;;16.76;66.87
36932;BME280;22847;42.654;23.370;2022-11-20T06:34:21;93987.41;;;17.26;66.69
36932;BME280;22847;42.654;23.370;2022-11-20T06:36:47;93958.00;;;17.10;66.75
36932;BME280;22847;42.654;23.370;2022-11-20T06:39:12;93956.81;;;17.19;66.30
36932;BME280;22847;42.654;23.370;2022-11-20T06:41:37;94004.22;;;17.38;66.36
36932;BME280;22847;42.654;23.370;2022-11-20T06:44:04;93953.56;;;17.23;65.74
36932;BME280;22847;42.654;23.370;2022-11-20T06:46:30;94001.00;;;17.50;65.26
36932;BME280;22847;42.654;23.370;2022-11-20T06:48:56;93976.25;;;17.44;65.13
36932;BME280;22847;42.654;23.370;2022-11-20T06:51:21;93981.53;;;17.57;64.69
36932;BME280;22847;42.654;23.370;2022-11-20T06:53:48;93831.97;;;16.67;64.62
36932;BME280;22847;42.654;23.370;2022-11-20T06:56:13;94020.88;;;17.85;64.67
36932;BME280;22847;42.654;23.370;2022-11-20T06:58:39;93964.50;;;17.66;64.66
36932;BME280;22847;42.654;23.370;2022-11-20T07:01:10;93994.34;;;17.60;64.33
36932;BME280;22847;42.654;23.370;2022-11-20T07:03:37;94037.09;;;17.49;65.09
36932;BME280;22847;42.654;23.370;2022-11-20T07:06:03;94025.53;;;17.50;65.01
36932;BME280;22847;42.654;23.370;2022-11-20T07:08:29;93985.78;;;17.38;64.56
36932;BME280;22847;42.654;23.370;2022-11-20T07:11:03;93976.88;;;17.66;63.06
36932;BME280;22847;42.654;23.370;2022-11-20T07:13:29;94016.19;;;18.07;62.51
36932;BME280;22847;42.654;23.370;2022-11-20T07:15:59;93856.69;;;16.99;62.22
36932;BME280;22847;42.654;23.370;2022-11-20T07:18:25;94037.72;;;17.71;63.35
36932;BME280;22847;42.654;23.370;2022-11-20T07:20:50;94004.47;;;17.83;62.93
36932;BME280;22847;42.654;23.370;2022-11-20T07:23:15;94013.19;;;17.90;62.64
36932;BME280;22847;42.654;23.370;2022-11-20T07:25:41;93970.81;;;17.59;63.07
36932;BME280;22847;42.654;23.370;2022-11-20T07:28:06;94035.47;;;17.74;63.56
36932;BME280;22847;42.654;23.370;2022-11-20T07:30:32;94002.44;;;17.59;63.26
36932;BME280;22847;42.654;23.370;2022-11-20T07:32:57;93868.84;;;16.93;61.96
36932;BME280;22847;42.654;23.370;2022-11-20T07:35:26;93897.22;;;16.91;61.64
36932;BME280;22847;42.654;23.370;2022-11-20T07:37:51;93992.91;;;17.64;61.40
36932;BME280;22847;42.654;23.370;2022-11-20T07:40:17;94048.88;;;17.99;61.05
36932;BME280;22847;42.654;23.370;2022-11-20T07:42:49;93903.09;;;17.33;61.03
36932;BME280;22847;42.654;23.370;2022-11-20T07:45:16;94050.50;;;18.00;60.70
36932;BME280;22847;42.654;23.370;2022-11-20T07:47:42;94027.31;;;18.15;60.98
36932;BME280;22847;42.654;23.370;2022-11-20T07:50:08;94028.00;;;17.91;60.75
36932;BME280;22847;42.654;23.370;2022-11-20T07:52:33;94022.88;;;18.16;60.18
36932;BME280;22847;42.654;23.370;2022-11-20T07:54:59;94047.59;;;18.35;59.79
36932;BME280;22847;42.654;23.370;2022-11-20T07:57:24;94015.78;;;18.03;60.19
36932;BME280;22847;42.654;23.370;2022-11-20T07:59:49;94017.63;;;17.57;62.48
36932;BME280;22847;42.654;23.370;2022-11-20T08:02:15;93893.34;;;16.68;62.49
36932;BME280;22847;42.654;23.370;2022-11-20T08:04:40;93809.22;;;16.14;62.83
36932;BME280;22847;42.654;23.370;2022-11-20T08:07:06;93994.28;;;17.34;62.44
36932;BME280;22847;42.654;23.370;2022-11-20T08:09:31;93973.63;;;17.24;62.29
36932;BME280;22847;42.654;23.370;2022-11-20T08:11:57;93940.56;;;17.02;62.70
36932;BME280;22847;42.654;23.370;2022-11-20T08:14:41;94031.44;;;17.72;62.72
36932;BME280;22847;42.654;23.370;2022-11-20T08:17:06;94017.63;;;17.96;61.77
36932;BME280;22847;42.654;23.370;2022-11-20T08:19:32;94017.44;;;17.84;61.74
36932;BME280;22847;42.654;23.370;2022-11-20T08:21:58;93829.13;;;16.75;60.54
36932;BME280;22847;42.654;23.370;2022-11-20T08:24:23;93840.09;;;16.79;60.66
36932;BME280;22847;42.654;23.370;2022-11-20T08:26:49;94017.38;;;18.11;59.99
36932;BME280;22847;42.654;23.370;2022-11-20T08:29:15;93998.72;;;18.12;59.83
36932;BME280;22847;42.654;23.370;2022-11-20T08:31:41;94015.56;;;18.11;59.53
36932;BME280;22847;42.654;23.370;2022-11-20T08:34:07;93938.56;;;17.63;59.49
36932;BME280;22847;42.654;23.370;2022-11-20T08:36:33;93997.28;;;18.23;58.40
36932;BME280;22847;42.654;23.370;2022-11-20T08:39:00;93858.47;;;17.45;58.79
36932;BME280;22847;42.654;23.370;2022-11-20T08:41:26;94012.22;;;18.55;58.73
36932;BME280;22847;42.654;23.370;2022-11-20T08:44:00;94040.59;;;18.73;58.52
36932;BME280;22847;42.654;23.370;2022-11-20T08:46:33;93779.72;;;16.97;58.20
36932;BME280;22847;42.654;23.370;2022-11-20T08:48:59;93866.41;;;17.38;57.94
36932;BME280;22847;42.654;23.370;2022-11-20T08:51:24;94069.00;;;18.84;57.29
36932;BME280;22847;42.654;23.370;2022-11-20T08:53:50;93742.88;;;16.71;57.37
36932;BME280;22847;42.654;23.370;2022-11-20T08:56:16;93902.66;;;17.56;57.30
36932;BME280;22847;42.654;23.370;2022-11-20T08:58:43;94081.03;;;18.67;58.19
36932;BME280;22847;42.654;23.370;2022-11-20T09:01:08;94063.81;;;18.45;58.62
36932;BME280;22847;42.654;23.370;2022-11-20T09:03:34;94068.84;;;18.66;58.34
36932;BME280;22847;42.654;23.370;2022-11-20T09:06:01;94076.16;;;18.70;57.48
36932;BME280;22847;42.654;23.370;2022-11-20T09:08:27;94039.25;;;18.44;58.37
36932;BME280;22847;42.654;23.370;2022-11-20T09:10:54;94010.25;;;18.24;58.70
36932;BME280;22847;42.654;23.370;2022-11-20T09:13:21;94037.63;;;18.43;59.34
36932;BME280;22847;42.654;23.370;2022-11-20T09:15:47;94071.38;;;18.21;61.51
36932;BME280;22847;42.654;23.370;2022-11-20T09:18:13;93887.69;;;17.10;62.31
36932;BME280;22847;42.654;23.370;2022-11-20T09:20:38;94062.63;;;18.21;63.60
36932;BME280;22847;42.654;23.370;2022-11-20T09:23:04;94068.13;;;18.19;65.17
36932;BME280;22847;42.654;23.370;2022-11-20T09:25:29;94078.91;;;18.18;66.84
36932;BME280;22847;42.654;23.370;2022-11-20T09:27:56;93888.91;;;16.94;67.34
36932;BME280;22847;42.654;23.370;2022-11-20T09:30:22;93930.06;;;17.28;68.09
36932;BME280;22847;42.654;23.370;2022-11-20T09:32:47;93868.47;;;16.97;66.12
36932;BME280;22847;42.654;23.370;2022-11-20T09:35:12;94057.78;;;18.11;66.52
36932;BME280;22847;42.654;23.370;2022-11-20T09:37:39;94037.13;;;17.82;67.15
36932;BME280;22847;42.654;23.370;2022-11-20T09:40:06;93966.75;;;17.23;68.17
36932;BME280;22847;42.654;23.370;2022-11-20T09:42:45;94070.59;;;17.81;68.09
36932;BME280;22847;42.654;23.370;2022-11-20T09:48:15;94062.50;;;17.83;67.97
36932;BME280;22847;42.654;23.370;2022-11-20T09:56:01;94014.75;;;17.52;67.97
36932;BME280;22847;42.654;23.370;2022-11-20T09:58:32;94024.53;;;17.51;69.06
36932;BME280;22847;42.654;23.370;2022-11-20T10:01:07;94019.66;;;17.42;69.70
36932;BME280;22847;42.654;23.370;2022-11-20T10:03:45;94053.50;;;17.45;67.75
36932;BME280;22847;42.654;23.370;2022-11-20T10:06:16;93965.41;;;16.67;70.21
36932;BME280;22847;42.654;23.370;2022-11-20T10:08:49;93989.03;;;17.27;64.75
36932;BME280;22847;42.654;23.370;2022-11-20T10:11:24;94033.06;;;17.79;65.38
36932;BME280;22847;42.654;23.370;2022-11-20T10:16:49;94001.41;;;17.66;65.36
36932;BME280;22847;42.654;23.370;2022-11-20T10:30:08;94000.81;;;17.71;67.75
36932;BME280;22847;42.654;23.370;2022-11-20T10:32:43;93999.00;;;17.78;68.10
36932;BME280;22847;42.654;23.370;2022-11-20T10:38:38;94001.59;;;18.04;68.13
36932;BME280;22847;42.654;23.370;2022-11-20T10:41:06;93899.00;;;17.44;67.86
36932;BME280;22847;42.654;23.370;2022-11-20T10:44:17;93793.09;;;16.89;67.08
36932;BME280;22847;42.654;23.370;2022-11-20T10:47:05;93832.59;;;16.89;67.67
36932;BME280;22847;42.654;23.370;2022-11-20T10:49:36;94021.84;;;18.17;68.08
36932;BME280;22847;42.654;23.370;2022-11-20T10:52:20;94041.97;;;17.98;68.82
36932;BME280;22847;42.654;23.370;2022-11-20T10:58:04;94030.19;;;17.55;70.83
36932;BME280;22847;42.654;23.370;2022-11-20T11:00:35;94067.91;;;17.42;71.43
36932;BME280;22847;42.654;23.370;2022-11-20T11:03:00;93840.56;;;16.02;72.38
36932;BME280;22847;42.654;23.370;2022-11-20T11:05:42;93822.09;;;15.89;72.37
36932;BME280;22847;42.654;23.370;2022-11-20T11:08:14;94041.31;;;17.30;72.45
36932;BME280;22847;42.654;23.370;2022-11-20T11:11:00;94060.00;;;17.55;71.97
36932;BME280;22847;42.654;23.370;2022-11-20T11:13:31;94064.44;;;17.48;71.99
36932;BME280;22847;42.654;23.370;2022-11-20T11:15:57;93885.78;;;16.38;72.24
36932;BME280;22847;42.654;23.370;2022-11-20T11:18:25;94052.69;;;17.24;74.81
36932;BME280;22847;42.654;23.370;2022-11-20T11:20:51;94092.69;;;17.61;75.64
36932;BME280;22847;42.654;23.370;2022-11-20T11:26:03;94112.69;;;16.81;69.80
36932;BME280;22847;42.654;23.370;2022-11-20T11:28:29;94093.81;;;16.71;69.87
36932;BME280;22847;42.654;23.370;2022-11-20T11:30:54;93940.06;;;16.05;70.09
36932;BME280;22847;42.654;23.370;2022-11-20T11:33:25;93872.72;;;15.56;66.75
36932;BME280;22847;42.654;23.370;2022-11-20T11:35:59;94091.53;;;16.62;64.26
36932;BME280;22847;42.654;23.370;2022-11-20T11:38:40;94054.09;;;16.25;66.88
36932;BME280;22847;42.654;23.370;2022-11-20T11:41:14;94091.94;;;16.24;66.54
36932;BME280;22847;42.654;23.370;2022-11-20T11:43:52;94078.53;;;16.19;68.35
36932;BME280;22847;42.654;23.370;2022-11-20T11:46:39;94017.66;;;15.60;66.74
36932;BME280;22847;42.654;23.370;2022-11-20T11:51:45;94046.88;;;15.29;69.21
36932;BME280;22847;42.654;23.370;2022-11-20T11:54:48;94080.47;;;15.55;69.71
36932;BME280;22847;42.654;23.370;2022-11-20T12:03:11;94059.13;;;15.65;69.03
36932;BME280;22847;42.654;23.370;2022-11-20T12:06:01;94029.00;;;15.67;68.82
36932;BME280;22847;42.654;23.370;2022-11-20T12:08:51;94027.09;;;15.76;67.76
36932;BME280;22847;42.654;23.370;2022-11-20T12:11:24;94017.41;;;15.34;67.84
36932;BME280;22847;42.654;23.370;2022-11-20T12:14:03;94012.16;;;15.34;68.46
36932;BME280;22847;42.654;23.370;2022-11-20T12:16:35;93901.50;;;14.45;69.54
36932;BME280;22847;42.654;23.370;2022-11-20T12:19:02;94045.88;;;15.30;71.04
36932;BME280;22847;42.654;23.370;2022-11-20T12:24:48;94071.25;;;15.02;71.61
36932;BME280;22847;42.654;23.370;2022-11-20T12:30:19;94079.94;;;15.02;71.71
36932;BME280;22847;42.654;23.370;2022-11-20T12:43:26;93991.22;;;14.98;69.41
36932;BME280;22847;42.654;23.370;2022-11-20T12:46:22;93982.41;;;15.05;68.99
36932;BME280;22847;42.654;23.370;2022-11-20T12:49:07;93983.59;;;15.24;68.38
36932;BME280;22847;42.654;23.370;2022-11-20T12:51:51;93994.59;;;15.13;69.34
36932;BME280;22847;42.654;23.370;2022-11-20T13:05:35;93974.06;;;14.38;73.08
36932;BME280;22847;42.654;23.370;2022-11-20T13:08:02;93882.47;;;13.86;72.64
36932;BME280;22847;42.654;23.370;2022-11-20T13:10:50;93924.31;;;14.30;72.99
36932;BME280;22847;42.654;23.370;2022-11-20T13:13:30;93949.00;;;14.71;73.45
36932;BME280;22847;42.654;23.370;2022-11-20T13:16:06;93797.84;;;13.92;74.42
36932;BME280;22847;42.654;23.370;2022-11-20T13:18:38;93934.19;;;14.85;75.46
36932;BME280;22847;42.654;23.370;2022-11-20T13:23:40;94021.78;;;15.05;74.55
36932;BME280;22847;42.654;23.370;2022-11-20T13:26:23;93857.25;;;14.85;72.77
36932;BME280;22847;42.654;23.370;2022-11-20T13:29:21;93963.31;;;15.18;73.55
36932;BME280;22847;42.654;23.370;2022-11-20T13:31:47;93999.63;;;15.08;72.12
36932;BME280;22847;42.654;23.370;2022-11-20T13:34:23;94033.47;;;15.45;71.10
36932;BME280;22847;42.654;23.370;2022-11-20T13:36:51;93937.69;;;15.20;72.86
36932;BME280;22847;42.654;23.370;2022-11-20T13:39:28;93811.28;;;14.25;72.99
36932;BME280;22847;42.654;23.370;2022-11-20T13:41:56;93855.75;;;14.33;73.08
36932;BME280;22847;42.654;23.370;2022-11-20T13:44:27;94021.47;;;15.36;73.68
36932;BME280;22847;42.654;23.370;2022-11-20T13:46:54;94012.66;;;15.23;74.33
36932;BME280;22847;42.654;23.370;2022-11-20T13:49:33;93807.56;;;14.13;73.77
36932;BME280;22847;42.654;23.370;2022-11-20T13:55:10;93986.88;;;15.33;72.86
36932;BME280;22847;42.654;23.370;2022-11-20T14:00:20;94024.28;;;15.56;73.39
36932;BME280;22847;42.654;23.370;2022-11-20T14:02:59;93839.84;;;14.13;73.64
36932;BME280;22847;42.654;23.370;2022-11-20T14:05:27;94046.53;;;15.53;73.62
36932;BME280;22847;42.654;23.370;2022-11-20T14:07:53;93881.78;;;14.49;73.03
36932;BME280;22847;42.654;23.370;2022-11-20T14:10:22;94011.63;;;15.45;73.21
36932;BME280;22847;42.654;23.370;2022-11-20T14:12:48;94016.50;;;15.69;73.70
36932;BME280;22847;42.654;23.370;2022-11-20T14:17:49;93990.00;;;15.43;73.88
36932;BME280;22847;42.654;23.370;2022-11-20T14:20:15;94005.50;;;15.59;74.16